createdAt,value
2023-05-10T00:01:53.347Z,62.56
2023-05-10T00:04:22.483Z,62.99
2023-05-10T00:06:50.959Z,62.94
2023-05-10T00:09:19.087Z,62.95
2023-05-10T00:11:47.252Z,63.29
2023-05-10T00:14:15.337Z,63.08
2023-05-10T00:16:43.859Z,63.48
2023-05-10T00:19:12.469Z,63.23
2023-05-10T00:21:40.573Z,63.22
2023-05-10T00:24:09.211Z,63.65
2023-05-10T00:26:37.322Z,63.89
2023-05-10T00:29:05.422Z,63.67
2023-05-10T00:31:33.837Z,64.03
2023-05-10T00:34:02.486Z,64.00
2023-05-10T00:36:32.421Z,63.83
2023-05-10T00:39:01.528Z,64.11
2023-05-10T00:41:30.047Z,64.14
2023-05-10T00:43:58.116Z,64.59
2023-05-10T00:46:26.624Z,64.50
2023-05-10T00:48:55.525Z,64.80
2023-05-10T00:51:24.023Z,65.08
2023-05-10T00:53:52.586Z,64.93
2023-05-10T00:56:21.562Z,65.23
2023-05-10T00:58:50.030Z,65.23
2023-05-10T01:01:18.547Z,65.41
2023-05-10T01:03:47.902Z,65.42
2023-05-10T01:06:21.080Z,65.62
2023-05-10T01:08:49.667Z,66.01
2023-05-10T01:11:17.812Z,65.95
2023-05-10T01:13:53.712Z,66.54
2023-05-10T01:16:22.535Z,66.39
2023-05-10T01:18:51.889Z,66.68
2023-05-10T01:21:30.716Z,66.99
2023-05-10T01:24:17.183Z,66.90
2023-05-10T01:27:09.834Z,67.26
2023-05-10T01:30:13.620Z,67.43
2023-05-10T01:33:35.704Z,67.51
2023-05-10T01:36:42.067Z,67.60
2023-05-10T01:40:00.620Z,67.90
2023-05-10T01:42:39.617Z,67.79
2023-05-10T01:45:41.478Z,67.92
2023-05-10T01:48:12.608Z,68.13
2023-05-10T01:50:45.677Z,68.45
2023-05-10T01:53:16.038Z,68.65
2023-05-10T01:55:49.862Z,68.64
2023-05-10T01:58:30.807Z,68.83
2023-05-10T02:01:02.807Z,69.05
2023-05-10T02:03:31.450Z,69.26
2023-05-10T02:06:01.206Z,69.27
2023-05-10T02:08:29.934Z,69.60
2023-05-10T02:10:59.819Z,69.63
2023-05-10T02:13:30.103Z,69.74
2023-05-10T02:15:59.887Z,69.76
2023-05-10T02:18:29.242Z,69.65
2023-05-10T02:20:58.705Z,69.71
2023-05-10T02:23:28.424Z,69.85
2023-05-10T02:25:58.779Z,69.61
2023-05-10T02:28:28.096Z,69.79
2023-05-10T02:30:57.262Z,69.71
2023-05-10T02:33:26.588Z,70.04
2023-05-10T02:35:55.109Z,70.16
2023-05-10T02:38:24.213Z,70.08
2023-05-10T02:40:54.260Z,69.89
2023-05-10T02:43:25.225Z,70.01
2023-05-10T02:45:53.406Z,69.86
2023-05-10T02:48:21.847Z,70.19
2023-05-10T02:50:53.301Z,70.22
2023-05-10T02:53:25.721Z,70.63
2023-05-10T02:55:57.001Z,70.63
2023-05-10T02:58:25.457Z,70.87
2023-05-10T03:00:53.578Z,71.19
2023-05-10T03:03:22.371Z,70.98
2023-05-10T03:05:50.808Z,70.84
2023-05-10T03:08:19.393Z,70.67
2023-05-10T03:11:39.354Z,70.83
2023-05-10T03:14:33.600Z,70.76
2023-05-10T03:17:41.243Z,70.69
2023-05-10T03:20:13.349Z,70.68
2023-05-10T03:22:49.938Z,71.04
2023-05-10T03:25:20.276Z,71.15
2023-05-10T03:27:49.009Z,70.85
2023-05-10T03:30:17.826Z,71.02
2023-05-10T03:32:46.579Z,70.79
2023-05-10T03:35:15.418Z,70.60
2023-05-10T03:37:43.955Z,70.34
2023-05-10T03:40:12.637Z,70.81
2023-05-10T03:42:41.070Z,70.54
2023-05-10T03:45:10.734Z,70.65
2023-05-10T03:47:39.229Z,70.69
2023-05-10T03:50:08.382Z,70.59
2023-05-10T03:52:36.858Z,70.80
2023-05-10T03:55:05.686Z,70.48
2023-05-10T03:57:34.172Z,70.19
2023-05-10T04:00:04.097Z,69.63
2023-05-10T04:02:32.385Z,69.33
2023-05-10T04:05:00.985Z,69.22
2023-05-10T04:07:29.105Z,69.21
2023-05-10T04:09:57.203Z,68.91
2023-05-10T04:12:25.317Z,68.26
2023-05-10T04:14:53.446Z,68.28
2023-05-10T04:17:22.014Z,68.08
2023-05-10T04:19:50.526Z,67.85
2023-05-10T04:22:19.032Z,67.74
2023-05-10T04:24:47.567Z,67.09
2023-05-10T04:27:15.681Z,67.20
2023-05-10T04:29:44.155Z,66.87
2023-05-10T04:32:12.279Z,67.40
2023-05-10T04:34:40.464Z,67.21
2023-05-10T04:37:08.957Z,66.61
2023-05-10T04:39:37.697Z,66.24
2023-05-10T04:42:07.346Z,65.83
2023-05-10T04:44:35.661Z,65.55
2023-05-10T04:47:04.303Z,65.11
2023-05-10T04:49:32.549Z,65.04
2023-05-10T04:52:00.718Z,64.90
2023-05-10T04:54:28.817Z,64.25
2023-05-10T04:56:56.962Z,63.73
2023-05-10T04:59:25.449Z,63.57
2023-05-10T05:01:53.600Z,63.31
2023-05-10T05:04:21.780Z,62.98
2023-05-10T05:06:51.724Z,62.67
2023-05-10T05:09:21.775Z,62.48
2023-05-10T05:11:50.042Z,61.85
2023-05-10T05:14:18.163Z,61.38
2023-05-10T05:16:46.707Z,60.74
2023-05-10T05:19:15.300Z,59.67
2023-05-10T05:21:43.803Z,60.07
2023-05-10T05:24:13.704Z,59.06
2023-05-10T05:26:42.534Z,58.01
2023-05-10T05:29:10.693Z,58.42
2023-05-10T05:31:38.903Z,57.03
2023-05-10T05:34:07.096Z,55.89
2023-05-10T05:36:40.405Z,55.82
2023-05-10T05:39:08.983Z,54.36
2023-05-10T05:41:37.553Z,53.95
2023-05-10T05:44:06.100Z,54.37
2023-05-10T05:46:34.593Z,54.65
2023-05-10T05:49:03.259Z,52.08
2023-05-10T05:51:31.993Z,51.99
2023-05-10T05:54:00.451Z,51.80
2023-05-10T05:56:28.932Z,52.11
2023-05-10T05:58:57.596Z,52.58
2023-05-10T06:01:26.035Z,51.98
2023-05-10T06:03:54.630Z,54.01
2023-05-10T06:06:23.262Z,53.65
2023-05-10T06:08:52.383Z,54.52
2023-05-10T06:11:22.081Z,54.29
2023-05-10T06:13:50.808Z,55.55
2023-05-10T06:16:19.485Z,56.22
2023-05-10T06:18:47.949Z,56.36
2023-05-10T06:21:17.239Z,56.50
2023-05-10T06:23:46.034Z,56.94
2023-05-10T06:26:14.877Z,57.00
2023-05-10T06:28:43.638Z,57.19
2023-05-10T06:31:12.890Z,56.82
2023-05-10T06:33:41.259Z,56.77
2023-05-10T06:36:09.948Z,56.96
2023-05-10T06:38:38.434Z,56.27
2023-05-10T06:41:06.914Z,56.09
2023-05-10T06:43:35.861Z,54.43
2023-05-10T06:46:04.491Z,53.93
2023-05-10T06:48:33.560Z,52.29
2023-05-10T06:51:02.061Z,50.73
2023-05-10T06:53:31.320Z,49.16
2023-05-10T06:55:59.824Z,48.77
2023-05-10T06:58:28.846Z,48.20
2023-05-10T07:01:03.781Z,47.43
2023-05-10T07:03:32.309Z,47.76
2023-05-10T07:06:05.464Z,47.79
2023-05-10T07:08:34.370Z,48.14
2023-05-10T07:11:08.151Z,48.85
2023-05-10T07:13:37.361Z,48.49
2023-05-10T07:16:07.412Z,49.14
2023-05-10T07:18:36.369Z,48.71
2023-05-10T07:21:05.256Z,48.89
2023-05-10T07:23:33.975Z,49.41
2023-05-10T07:26:03.292Z,49.95
2023-05-10T07:28:31.804Z,49.66
2023-05-10T07:31:00.315Z,49.71
2023-05-10T07:33:28.856Z,49.66
2023-05-10T07:35:57.369Z,48.80
2023-05-10T07:38:25.854Z,47.76
2023-05-10T07:40:54.361Z,47.20
2023-05-10T07:43:22.891Z,46.53
2023-05-10T07:45:55.442Z,46.96
2023-05-10T07:48:24.700Z,47.14
2023-05-10T07:50:53.183Z,47.89
2023-05-10T07:53:21.775Z,48.16
2023-05-10T07:55:53.873Z,48.02
2023-05-10T07:58:22.351Z,48.14
2023-05-10T08:00:50.837Z,49.36
2023-05-10T08:03:19.467Z,49.11
2023-05-10T08:05:48.123Z,49.21
2023-05-10T08:08:16.337Z,49.50
2023-05-10T08:10:44.876Z,50.24
2023-05-10T08:13:13.337Z,50.30
2023-05-10T08:15:41.875Z,50.48
2023-05-10T08:18:10.501Z,50.57
2023-05-10T08:20:39.023Z,51.07
2023-05-10T08:23:09.516Z,51.56
2023-05-10T08:25:38.170Z,52.10
2023-05-10T08:28:06.702Z,52.24
2023-05-10T08:30:35.167Z,53.05
2023-05-10T08:33:03.697Z,54.08
2023-05-10T08:35:32.476Z,54.93
2023-05-10T08:38:04.785Z,55.70
2023-05-10T08:40:33.026Z,56.26
2023-05-10T08:43:11.253Z,56.74
2023-05-10T08:45:48.097Z,57.21
2023-05-10T08:48:17.625Z,57.80
2023-05-10T08:50:49.190Z,58.19
2023-05-10T08:53:18.672Z,58.80
2023-05-10T08:55:47.179Z,58.96
2023-05-10T08:58:15.621Z,59.35
2023-05-10T09:00:44.336Z,59.62
2023-05-10T09:03:12.881Z,59.84
2023-05-10T09:05:42.374Z,60.69
2023-05-10T09:08:11.618Z,62.10
2023-05-10T09:10:40.959Z,62.59
2023-05-10T09:13:12.641Z,64.21
2023-05-10T09:15:41.539Z,64.96
2023-05-10T09:18:10.305Z,66.53
2023-05-10T09:20:38.875Z,67.85
2023-05-10T09:23:07.733Z,69.12
2023-05-10T09:25:36.627Z,69.20
2023-05-10T09:28:05.199Z,70.30
2023-05-10T09:30:33.982Z,70.69
2023-05-10T09:33:02.873Z,72.49
2023-05-10T09:35:33.828Z,73.27
2023-05-10T09:38:07.347Z,74.25
2023-05-10T09:40:35.998Z,75.92
2023-05-10T09:43:09.780Z,78.93
2023-05-10T09:45:39.096Z,79.54
2023-05-10T09:48:08.464Z,81.61
2023-05-10T09:50:37.395Z,83.81
2023-05-10T09:53:06.313Z,85.00
2023-05-10T09:55:50.276Z,86.64
2023-05-10T09:58:18.820Z,86.57
2023-05-10T10:00:52.400Z,87.85
2023-05-10T10:03:23.664Z,88.36
2023-05-10T10:05:52.249Z,88.57
2023-05-10T10:08:21.431Z,89.43
2023-05-10T10:10:51.452Z,88.98
2023-05-10T10:13:19.972Z,89.26
2023-05-10T10:15:52.237Z,89.94
2023-05-10T10:18:24.545Z,89.93
2023-05-10T10:20:53.083Z,90.02
2023-05-10T10:23:21.558Z,90.62
2023-05-10T10:25:50.588Z,90.46
2023-05-10T10:28:38.013Z,91.57
2023-05-10T10:31:40.642Z,92.68
2023-05-10T10:34:12.120Z,92.57
2023-05-10T10:36:49.125Z,92.71
2023-05-10T10:39:18.040Z,93.46
2023-05-10T10:41:53.190Z,93.61
2023-05-10T10:44:34.621Z,93.65
2023-05-10T10:47:19.578Z,94.02
2023-05-10T10:50:04.429Z,94.54
2023-05-10T10:52:42.360Z,94.44
2023-05-10T10:55:23.595Z,94.59
2023-05-10T10:58:01.519Z,94.82
2023-05-10T11:00:31.953Z,95.33
2023-05-10T11:03:08.507Z,95.14
2023-05-10T11:05:53.571Z,95.10
2023-05-10T11:08:37.466Z,95.86
2023-05-10T11:11:09.145Z,96.46
2023-05-10T11:13:41.634Z,96.91
2023-05-10T11:16:20.997Z,97.21
2023-05-10T11:19:07.688Z,97.86
2023-05-10T11:21:46.653Z,98.02
2023-05-10T11:24:21.354Z,98.98
2023-05-10T11:26:53.294Z,100.00
2023-05-10T11:29:22.080Z,100.00
2023-05-10T11:31:51.523Z,100.00
2023-05-10T11:34:31.912Z,100.00
2023-05-10T11:37:00.825Z,100.00
2023-05-10T11:39:31.143Z,100.00
2023-05-10T11:42:01.204Z,100.00
2023-05-10T11:44:35.925Z,100.00
2023-05-10T11:47:04.837Z,100.00
2023-05-10T11:49:33.304Z,100.00
2023-05-10T11:52:12.170Z,100.00
2023-05-10T11:54:46.929Z,99.70
2023-05-10T11:57:15.549Z,99.44
2023-05-10T11:59:44.005Z,100.00
2023-05-10T12:02:12.928Z,99.69
2023-05-10T12:04:41.584Z,99.62
2023-05-10T12:07:10.294Z,99.60
2023-05-10T12:09:43.757Z,100.00
2023-05-10T12:12:17.847Z,100.00
2023-05-10T12:14:46.339Z,100.00
2023-05-10T12:17:15.313Z,100.00
2023-05-10T12:19:44.804Z,98.39
2023-05-10T12:22:13.399Z,98.08
2023-05-10T12:24:41.875Z,99.17
2023-05-10T12:27:13.431Z,99.75
2023-05-10T12:29:45.908Z,100.00
2023-05-10T12:32:14.550Z,100.00
2023-05-10T12:34:43.049Z,100.00
2023-05-10T12:37:11.490Z,100.00
2023-05-10T12:39:47.127Z,100.00
2023-05-10T12:42:15.803Z,99.82
2023-05-10T12:44:44.539Z,99.85
2023-05-10T12:47:13.015Z,99.61
2023-05-10T12:49:41.519Z,99.20
2023-05-10T12:52:10.047Z,99.16
2023-05-10T12:54:38.466Z,99.28
2023-05-10T12:57:06.932Z,99.13
2023-05-10T12:59:37.470Z,98.60
2023-05-10T13:02:06.944Z,98.27
2023-05-10T13:04:38.572Z,98.06
2023-05-10T13:07:07.816Z,98.40
2023-05-10T13:09:36.532Z,98.58
2023-05-10T13:12:05.883Z,99.24
2023-05-10T13:14:35.108Z,99.26
2023-05-10T13:17:03.673Z,98.14
2023-05-10T13:19:32.156Z,97.94
2023-05-10T13:22:00.657Z,97.48
2023-05-10T13:24:29.247Z,97.03
2023-05-10T13:26:57.719Z,97.00
2023-05-10T13:29:26.279Z,95.88
2023-05-10T13:31:54.839Z,95.27
2023-05-10T13:34:23.409Z,95.61
2023-05-10T13:36:52.086Z,94.92
2023-05-10T13:39:20.986Z,95.68
2023-05-10T13:41:49.845Z,96.16
2023-05-10T13:44:18.436Z,96.60
2023-05-10T13:46:47.523Z,97.06
2023-05-10T13:49:16.282Z,97.22
2023-05-10T13:51:46.675Z,96.34
2023-05-10T13:54:15.223Z,96.33
2023-05-10T13:56:45.012Z,95.95
2023-05-10T13:59:13.522Z,96.34
2023-05-10T14:01:43.733Z,96.27
2023-05-10T14:04:12.257Z,96.76
2023-05-10T14:06:40.811Z,97.14
2023-05-10T14:09:09.735Z,98.01
2023-05-10T14:11:38.248Z,98.11
2023-05-10T14:14:06.687Z,98.71
2023-05-10T14:16:35.233Z,99.54
2023-05-10T14:19:03.892Z,100.00
2023-05-10T14:21:32.391Z,100.00
2023-05-10T14:24:00.853Z,100.00
2023-05-10T14:26:29.443Z,100.00
2023-05-10T14:28:58.445Z,100.00
2023-05-10T14:31:26.932Z,100.00
2023-05-10T14:33:55.649Z,100.00
2023-05-10T14:36:24.389Z,100.00
2023-05-10T14:38:52.899Z,100.00
2023-05-10T14:41:21.398Z,100.00
2023-05-10T14:43:49.897Z,100.00
2023-05-10T14:46:18.470Z,100.00
2023-05-10T14:48:47.066Z,100.00
2023-05-10T14:51:15.717Z,100.00
2023-05-10T14:53:44.661Z,100.00
2023-05-10T14:56:13.179Z,100.00
2023-05-10T14:58:41.781Z,100.00
2023-05-10T15:01:10.350Z,100.00
2023-05-10T15:03:39.319Z,100.00
2023-05-10T15:06:08.416Z,100.00
2023-05-10T15:08:36.868Z,100.00
2023-05-10T15:11:05.384Z,100.00
2023-05-10T15:13:33.868Z,100.00
2023-05-10T15:16:02.377Z,100.00
2023-05-10T15:18:30.928Z,100.00
2023-05-10T15:20:59.883Z,100.00
2023-05-10T15:23:28.381Z,100.00
2023-05-10T15:25:56.993Z,100.00
2023-05-10T15:28:25.479Z,100.00
2023-05-10T15:30:53.960Z,100.00
2023-05-10T15:33:22.420Z,100.00
2023-05-10T15:35:50.621Z,100.00
2023-05-10T15:38:19.212Z,100.00
2023-05-10T15:40:47.690Z,100.00
2023-05-10T15:43:16.204Z,100.00
2023-05-10T15:45:44.706Z,100.00
2023-05-10T15:48:13.160Z,100.00
2023-05-10T15:50:42.352Z,100.00
2023-05-10T15:53:10.975Z,100.00
2023-05-10T15:55:39.472Z,100.00
2023-05-10T15:58:08.171Z,100.00
2023-05-10T16:00:36.673Z,100.00
2023-05-10T16:03:05.300Z,100.00
2023-05-10T16:05:34.167Z,100.00
2023-05-10T16:08:03.174Z,100.00
2023-05-10T16:10:34.259Z,100.00
2023-05-10T16:13:03.808Z,100.00
2023-05-10T16:15:34.015Z,100.00
2023-05-10T16:18:02.933Z,100.00
2023-05-10T16:20:31.617Z,100.00
2023-05-10T16:23:08.533Z,100.00
2023-05-10T16:25:36.816Z,100.00
2023-05-10T16:28:05.450Z,100.00
2023-05-10T16:30:34.071Z,100.00
2023-05-10T16:33:03.452Z,100.00
2023-05-10T16:35:32.030Z,100.00
2023-05-10T16:38:00.522Z,100.00
2023-05-10T16:40:28.991Z,100.00
2023-05-10T16:42:58.084Z,100.00
2023-05-10T16:45:27.043Z,100.00
2023-05-10T16:47:55.913Z,100.00
2023-05-10T16:50:24.174Z,100.00
2023-05-10T16:52:52.700Z,100.00
2023-05-10T16:55:22.064Z,100.00
2023-05-10T16:57:52.823Z,100.00
2023-05-10T17:00:21.646Z,100.00
2023-05-10T17:02:50.223Z,100.00
2023-05-10T17:05:18.802Z,100.00
2023-05-10T17:07:47.460Z,100.00
2023-05-10T17:10:16.345Z,100.00
2023-05-10T17:12:45.058Z,100.00
2023-05-10T17:15:13.631Z,100.00
2023-05-10T17:17:42.206Z,100.00
2023-05-10T17:20:11.122Z,100.00
2023-05-10T17:22:39.633Z,100.00
2023-05-10T17:25:08.624Z,100.00
2023-05-10T17:27:37.132Z,100.00
2023-05-10T17:30:05.980Z,100.00
2023-05-10T17:32:34.561Z,100.00
2023-05-10T17:35:03.849Z,100.00
2023-05-10T17:37:33.082Z,100.00
2023-05-10T17:40:01.968Z,100.00
2023-05-10T17:42:30.480Z,100.00
2023-05-10T17:44:58.943Z,100.00
2023-05-10T17:47:27.953Z,100.00
2023-05-10T17:49:56.437Z,100.00
2023-05-10T17:52:24.990Z,100.00
2023-05-10T17:54:53.498Z,100.00
2023-05-10T17:57:22.536Z,100.00
2023-05-10T17:59:50.996Z,100.00
2023-05-10T18:02:19.451Z,100.00
2023-05-10T18:04:48.935Z,100.00
2023-05-10T18:07:17.554Z,100.00
2023-05-10T18:09:46.025Z,100.00
2023-05-10T18:12:14.479Z,100.00
2023-05-10T18:14:42.940Z,100.00
2023-05-10T18:17:11.645Z,100.00
2023-05-10T18:19:40.745Z,100.00
2023-05-10T18:22:10.804Z,100.00
2023-05-10T18:24:40.081Z,100.00
2023-05-10T18:27:10.025Z,100.00
2023-05-10T18:29:38.695Z,100.00
2023-05-10T18:32:07.656Z,100.00
2023-05-10T18:34:36.215Z,100.00
2023-05-10T18:37:07.812Z,100.00
2023-05-10T18:39:37.861Z,100.00
2023-05-10T18:42:07.422Z,100.00
2023-05-10T18:44:36.001Z,100.00
2023-05-10T18:47:04.499Z,100.00
2023-05-10T18:49:33.039Z,100.00
2023-05-10T18:52:01.513Z,100.00
2023-05-10T18:54:30.122Z,100.00
2023-05-10T18:56:58.801Z,100.00
2023-05-10T18:59:28.140Z,100.00
2023-05-10T19:01:57.497Z,100.00
2023-05-10T19:04:26.364Z,100.00
2023-05-10T19:06:55.941Z,100.00
2023-05-10T19:09:24.831Z,100.00
2023-05-10T19:11:53.743Z,100.00
2023-05-10T19:14:22.569Z,100.00
2023-05-10T19:16:51.184Z,100.00
2023-05-10T19:19:21.275Z,100.00
2023-05-10T19:21:50.024Z,100.00
2023-05-10T19:24:19.694Z,100.00
2023-05-10T19:26:48.743Z,100.00
2023-05-10T19:29:17.487Z,100.00
2023-05-10T19:31:47.051Z,100.00
2023-05-10T19:34:15.605Z,100.00
2023-05-10T19:36:44.057Z,100.00
2023-05-10T19:39:13.365Z,100.00
2023-05-10T19:41:41.826Z,100.00
2023-05-10T19:44:10.371Z,100.00
2023-05-10T19:46:38.853Z,100.00
2023-05-10T19:49:07.761Z,100.00
2023-05-10T19:51:36.301Z,100.00
2023-05-10T19:54:04.874Z,100.00
2023-05-10T19:56:33.378Z,100.00
2023-05-10T19:59:03.278Z,100.00
2023-05-10T20:01:32.918Z,100.00
2023-05-10T20:04:01.543Z,100.00
2023-05-10T20:06:30.064Z,100.00
2023-05-10T20:08:58.535Z,100.00
2023-05-10T20:11:27.051Z,100.00
2023-05-10T20:13:55.517Z,100.00
2023-05-10T20:16:26.623Z,100.00
2023-05-10T20:18:55.594Z,100.00
2023-05-10T20:21:24.167Z,100.00
2023-05-10T20:23:52.699Z,100.00
2023-05-10T20:26:21.712Z,100.00
2023-05-10T20:28:51.186Z,100.00
2023-05-10T20:31:19.680Z,100.00
2023-05-10T20:33:48.125Z,100.00
2023-05-10T20:36:16.796Z,100.00
2023-05-10T20:38:45.243Z,100.00
2023-05-10T20:41:13.688Z,100.00
2023-05-10T20:43:41.847Z,100.00
2023-05-10T20:46:10.389Z,100.00
2023-05-10T20:48:39.124Z,100.00
2023-05-10T20:51:07.819Z,100.00
2023-05-10T20:53:36.296Z,100.00
2023-05-10T20:56:04.740Z,100.00
2023-05-10T20:58:33.378Z,100.00
2023-05-10T21:01:03.712Z,100.00
2023-05-10T21:03:32.395Z,100.00
2023-05-10T21:06:00.948Z,100.00
2023-05-10T21:08:29.493Z,100.00
2023-05-10T21:10:58.001Z,100.00
2023-05-10T21:13:26.518Z,100.00
2023-05-10T21:15:55.198Z,100.00
2023-05-10T21:18:23.764Z,100.00
2023-05-10T21:20:52.249Z,100.00
2023-05-10T21:23:20.789Z,100.00
2023-05-10T21:25:49.319Z,100.00
2023-05-10T21:28:17.408Z,100.00
2023-05-10T21:30:46.338Z,100.00
2023-05-10T21:33:14.974Z,100.00
2023-05-10T21:35:44.174Z,100.00
2023-05-10T21:38:12.707Z,100.00
2023-05-10T21:40:41.261Z,100.00
2023-05-10T21:43:11.268Z,100.00
2023-05-10T21:45:39.827Z,100.00
2023-05-10T21:48:08.361Z,100.00
2023-05-10T21:50:36.886Z,100.00
2023-05-10T21:53:05.381Z,100.00
2023-05-10T21:55:34.365Z,100.00
2023-05-10T21:58:02.880Z,100.00
2023-05-10T22:00:32.830Z,100.00
2023-05-10T22:03:02.664Z,100.00
2023-05-10T22:05:31.269Z,100.00
2023-05-10T22:07:59.940Z,100.00
2023-05-10T22:10:28.463Z,100.00
2023-05-10T22:12:57.297Z,100.00
2023-05-10T22:15:25.803Z,100.00
2023-05-10T22:17:54.435Z,100.00
2023-05-10T22:20:22.977Z,100.00
2023-05-10T22:22:51.472Z,100.00
2023-05-10T22:25:20.157Z,100.00
2023-05-10T22:27:48.612Z,100.00
2023-05-10T22:30:17.206Z,100.00
2023-05-10T22:32:46.483Z,100.00
2023-05-10T22:35:15.025Z,100.00
2023-05-10T22:37:43.469Z,100.00
2023-05-10T22:40:12.463Z,100.00
2023-05-10T22:42:41.049Z,100.00
2023-05-10T22:45:10.178Z,100.00
2023-05-10T22:47:38.843Z,100.00
2023-05-10T22:50:07.907Z,100.00
2023-05-10T22:52:38.882Z,100.00
2023-05-10T22:55:08.305Z,100.00
2023-05-10T22:57:36.898Z,100.00
2023-05-10T23:00:06.293Z,100.00
2023-05-10T23:02:34.559Z,100.00
2023-05-10T23:05:03.277Z,100.00
2023-05-10T23:07:31.921Z,100.00
2023-05-10T23:10:00.452Z,100.00
2023-05-10T23:12:31.298Z,100.00
2023-05-10T23:14:59.720Z,100.00
2023-05-10T23:17:28.435Z,100.00
2023-05-10T23:19:56.648Z,100.00
2023-05-10T23:22:25.113Z,100.00
2023-05-10T23:24:53.543Z,100.00
2023-05-10T23:27:22.528Z,100.00
2023-05-10T23:29:52.489Z,100.00
2023-05-10T23:32:20.975Z,100.00
2023-05-10T23:34:49.141Z,100.00
2023-05-10T23:37:18.029Z,100.00
2023-05-10T23:39:46.651Z,100.00
2023-05-10T23:42:15.151Z,100.00
2023-05-10T23:44:43.628Z,100.00
2023-05-10T23:47:12.163Z,100.00
2023-05-10T23:49:42.090Z,100.00
2023-05-10T23:52:10.781Z,100.00
2023-05-10T23:54:39.333Z,100.00
2023-05-10T23:57:07.875Z,100.00
2023-05-10T23:59:36.358Z,100.00
